Time;durP1;ratioP1;P1;durP2;ratioP2;P2;SDS_P1;SDS_P2;PMS_P1;PMS_P2;Temp;Humidity;BMP_temperature;BMP_pressure;BME280_temperature;BME280_humidity;BME280_pressure;Samples;Min_cycle;Max_cycle;Signal;HPM_P1;HPM_P2
2022/02/27 00:00:16;;;;;;;2.20;1.30;;;0.70;99.90;;;;;;6316380;28;20269;-76
2022/02/27 00:03:21;;;;;;;2.67;1.10;;;0.70;99.90;;;;;;6314717;28;20329;-76
2022/02/27 00:06:27;;;;;;;2.87;1.23;;;0.70;99.90;;;;;;6315017;28;20435;-76
2022/02/27 00:09:32;;;;;;;2.63;1.30;;;0.70;99.90;;;;;;6314730;28;20481;-76
2022/02/27 00:12:39;;;;;;;1.30;1.30;;;0.60;99.90;;;;;;6314607;28;20302;-76
2022/02/27 00:15:44;;;;;;;1.17;1.17;;;0.60;99.90;;;;;;6314772;28;20270;-76
2022/02/27 00:18:50;;;;;;;3.30;1.30;;;0.50;99.90;;;;;;6314990;28;20362;-76
2022/02/27 00:21:55;;;;;;;1.30;1.20;;;0.50;99.90;;;;;;6314731;28;20490;-76
2022/02/27 00:25:00;;;;;;;2.37;1.20;;;0.40;99.90;;;;;;6314189;28;20300;-76
2022/02/27 00:28:08;;;;;;;2.77;1.50;;;0.40;99.90;;;;;;6314542;28;20296;-76
2022/02/27 00:31:13;;;;;;;1.83;1.30;;;0.40;99.90;;;;;;6314100;28;20297;-76
2022/02/27 00:34:20;;;;;;;2.43;1.40;;;0.30;99.90;;;;;;6314671;28;20297;-76
2022/02/27 00:37:25;;;;;;;1.20;1.20;;;0.30;99.90;;;;;;6313241;28;20601;-76
2022/02/27 00:40:31;;;;;;;2.53;1.40;;;0.20;99.90;;;;;;6296573;28;20277;-76
2022/02/27 00:43:39;;;;;;;4.87;1.30;;;0.20;99.90;;;;;;6312885;28;20301;-76
2022/02/27 00:46:45;;;;;;;6.30;1.43;;;0.20;99.90;;;;;;6313657;28;20559;-76
2022/02/27 00:49:51;;;;;;;2.83;1.40;;;0.30;99.90;;;;;;6314768;28;20729;-76
2022/02/27 00:52:58;;;;;;;1.60;1.50;;;0.20;99.90;;;;;;6313155;28;20300;-76
2022/02/27 00:56:04;;;;;;;3.07;1.23;;;0.20;99.90;;;;;;6314418;28;20443;-76
2022/02/27 00:59:12;;;;;;;1.20;1.17;;;0.20;99.90;;;;;;6313259;28;20491;-76
2022/02/27 01:02:18;;;;;;;1.20;1.20;;;0.20;99.90;;;;;;6313345;28;20289;-76
2022/02/27 01:05:23;;;;;;;1.33;1.27;;;0.40;99.90;;;;;;6314262;28;20277;-76
2022/02/27 01:08:29;;;;;;;3.70;1.33;;;0.40;99.90;;;;;;6312995;28;20298;-76
2022/02/27 01:11:35;;;;;;;1.63;1.40;;;0.40;99.90;;;;;;6295806;28;20287;-76
2022/02/27 01:14:42;;;;;;;2.30;1.20;;;0.40;99.90;;;;;;6311895;28;20295;-76
2022/02/27 01:17:47;;;;;;;1.47;1.10;;;0.50;99.90;;;;;;6313277;28;20296;-76
2022/02/27 01:20:52;;;;;;;4.63;1.30;;;0.50;99.90;;;;;;6313096;28;20304;-76
2022/02/27 01:23:58;;;;;;;1.23;1.10;;;0.50;99.90;;;;;;6312583;28;20293;-76
2022/02/27 01:27:04;;;;;;;1.17;1.17;;;0.60;99.90;;;;;;6312723;28;20276;-76
2022/02/27 01:30:13;;;;;;;1.00;1.00;;;0.60;99.90;;;;;;6312754;28;20277;-76
2022/02/27 01:33:19;;;;;;;4.23;1.10;;;0.70;99.90;;;;;;6310873;28;20313;-76
2022/02/27 01:36:24;;;;;;;2.73;1.00;;;0.90;99.90;;;;;;6313057;28;20271;-76
2022/02/27 01:39:29;;;;;;;2.77;1.33;;;0.90;99.90;;;;;;6312652;28;20302;-76
2022/02/27 01:42:35;;;;;;;2.73;1.20;;;0.90;99.90;;;;;;6294250;28;20297;-76
2022/02/27 01:45:41;;;;;;;1.00;1.00;;;0.90;99.90;;;;;;6313381;28;20260;-76
2022/02/27 01:48:47;;;;;;;1.13;1.00;;;1.00;99.90;;;;;;6295551;28;20313;-76
2022/02/27 01:51:54;;;;;;;2.87;1.20;;;1.00;99.90;;;;;;6295265;28;20278;-76
2022/02/27 01:54:59;;;;;;;1.20;1.10;;;1.00;99.90;;;;;;6312206;28;20302;-77
2022/02/27 01:58:05;;;;;;;1.27;1.27;;;1.10;99.90;;;;;;6310521;28;20296;-76
2022/02/27 02:01:12;;;;;;;1.20;1.20;;;1.10;99.90;;;;;;6295335;28;20277;-76
2022/02/27 02:04:19;;;;;;;3.90;1.27;;;1.10;99.90;;;;;;6311410;28;20497;-76
2022/02/27 02:07:25;;;;;;;1.70;1.27;;;1.10;99.90;;;;;;6295034;28;20319;-76
2022/02/27 02:10:31;;;;;;;1.27;1.17;;;1.20;99.90;;;;;;6312132;28;20293;-76
2022/02/27 02:13:42;;;;;;;1.63;1.20;;;1.30;99.80;;;;;;6293685;28;20301;-76
2022/02/27 02:16:50;;;;;;;1.20;1.20;;;1.30;99.90;;;;;;6293917;28;20459;-76
2022/02/27 02:19:57;;;;;;;1.07;1.07;;;1.30;99.90;;;;;;6309133;28;20310;-76
2022/02/27 02:23:03;;;;;;;1.90;1.00;;;1.30;99.90;;;;;;6293621;28;20305;-76
2022/02/27 02:26:10;;;;;;;3.00;1.00;;;1.40;99.20;;;;;;6294444;28;20269;-76
2022/02/27 02:29:18;;;;;;;4.90;1.40;;;1.50;99.00;;;;;;6294354;28;20296;-76
2022/02/27 02:32:23;;;;;;;1.23;1.20;;;1.60;98.00;;;;;;6293879;28;20289;-76
2022/02/27 02:35:31;;;;;;;5.27;1.10;;;1.70;97.60;;;;;;6312662;28;20273;-76
2022/02/27 02:38:36;;;;;;;3.20;1.10;;;1.80;97.40;;;;;;6311660;28;20302;-76
2022/02/27 02:41:42;;;;;;;4.33;1.00;;;1.80;97.60;;;;;;6294228;28;20270;-76
2022/02/27 02:44:54;;;;;;;1.27;1.17;;;1.80;97.50;;;;;;6310663;28;20481;-76
2022/02/27 02:48:00;;;;;;;4.03;1.07;;;1.80;97.90;;;;;;6311396;28;20297;-76
2022/02/27 02:51:09;;;;;;;4.33;1.20;;;1.80;98.10;;;;;;6294591;28;20277;-76
2022/02/27 02:54:15;;;;;;;4.07;1.10;;;1.80;98.90;;;;;;6312814;28;20305;-76
2022/02/27 02:57:20;;;;;;;1.80;1.30;;;1.90;97.90;;;;;;6312123;28;20279;-76
2022/02/27 03:00:25;;;;;;;1.93;1.00;;;1.90;98.70;;;;;;6311967;28;20266;-76
2022/02/27 03:03:31;;;;;;;1.40;1.00;;;1.90;98.70;;;;;;6311215;28;20297;-76
2022/02/27 03:06:38;;;;;;;2.83;1.20;;;1.90;98.20;;;;;;6311996;28;20273;-76
2022/02/27 03:09:43;;;;;;;1.90;1.10;;;1.80;99.00;;;;;;6311021;28;20297;-76
2022/02/27 03:12:49;;;;;;;1.47;1.20;;;1.90;98.80;;;;;;6310197;28;20457;-76
2022/02/27 03:15:54;;;;;;;1.03;1.00;;;1.90;98.90;;;;;;6311336;28;20573;-76
2022/02/27 03:19:00;;;;;;;2.03;1.20;;;1.90;98.80;;;;;;6310880;28;20294;-76
2022/02/27 03:22:07;;;;;;;0.90;0.90;;;1.90;99.50;;;;;;6310548;28;20590;-76
2022/02/27 03:25:13;;;;;;;4.30;1.13;;;1.90;99.20;;;;;;6311379;28;20278;-76
2022/02/27 03:28:18;;;;;;;0.90;0.90;;;1.90;99.90;;;;;;6310534;28;20472;-76
2022/02/27 03:31:24;;;;;;;1.93;1.00;;;2.00;99.20;;;;;;6312538;28;20266;-76
2022/02/27 03:34:29;;;;;;;1.17;1.03;;;1.90;99.30;;;;;;6315300;28;20303;-76
2022/02/27 03:37:36;;;;;;;1.17;0.97;;;1.90;99.10;;;;;;6315278;28;20291;-76
2022/02/27 03:40:41;;;;;;;4.13;1.20;;;1.90;99.70;;;;;;6315719;28;20550;-77
2022/02/27 03:43:46;;;;;;;1.00;1.00;;;1.90;99.90;;;;;;6315554;28;20302;-77
2022/02/27 03:46:51;;;;;;;3.90;1.10;;;1.90;99.90;;;;;;6315807;28;20271;-76
2022/02/27 03:49:57;;;;;;;2.43;1.10;;;1.90;99.90;;;;;;6315527;28;20310;-76
2022/02/27 03:53:04;;;;;;;2.10;1.20;;;1.90;99.90;;;;;;6314804;28;20586;-76
2022/02/27 03:56:11;;;;;;;6.03;1.10;;;1.90;99.90;;;;;;6315769;28;20290;-76
2022/02/27 03:59:17;;;;;;;1.20;1.10;;;1.90;99.90;;;;;;6315112;28;20568;-76
2022/02/27 04:02:23;;;;;;;1.20;1.20;;;1.90;99.90;;;;;;6313468;28;20301;-76
2022/02/27 04:05:29;;;;;;;3.20;1.20;;;1.80;99.90;;;;;;6315540;28;20576;-76
2022/02/27 04:08:36;;;;;;;2.40;1.20;;;1.80;99.90;;;;;;6315376;28;20302;-76
2022/02/27 04:11:41;;;;;;;2.40;1.20;;;1.80;99.90;;;;;;6315551;28;20546;-76
2022/02/27 04:14:47;;;;;;;3.60;1.20;;;1.80;99.90;;;;;;6315229;28;20297;-76
2022/02/27 04:17:52;;;;;;;3.27;1.67;;;1.90;99.90;;;;;;6314725;28;20290;-76
2022/02/27 04:20:58;;;;;;;4.40;1.20;;;1.80;99.90;;;;;;6315441;28;20296;-76
2022/02/27 04:24:05;;;;;;;1.00;0.90;;;1.80;99.90;;;;;;6315000;28;20302;-76
2022/02/27 04:27:11;;;;;;;2.43;1.33;;;1.90;99.90;;;;;;6314091;28;20275;-76
2022/02/27 04:30:16;;;;;;;1.10;1.10;;;1.90;99.90;;;;;;6315108;28;20274;-76
2022/02/27 04:33:22;;;;;;;1.33;1.03;;;1.90;99.90;;;;;;6313993;28;20295;-76
2022/02/27 04:36:27;;;;;;;1.30;0.90;;;2.00;99.90;;;;;;6304070;28;20291;-76
2022/02/27 04:39:33;;;;;;;2.03;1.10;;;1.90;99.90;;;;;;6289233;28;20298;-76
2022/02/27 04:42:39;;;;;;;1.30;1.20;;;1.80;99.90;;;;;;6288166;28;20566;-76
2022/02/27 04:45:44;;;;;;;1.00;1.00;;;1.80;99.90;;;;;;6289933;28;20438;-76
2022/02/27 04:48:50;;;;;;;1.27;1.17;;;1.80;99.90;;;;;;6289287;28;20294;-76
2022/02/27 04:51:55;;;;;;;2.00;1.20;;;1.80;99.90;;;;;;6289647;28;20271;-76
2022/02/27 04:55:03;;;;;;;1.37;1.30;;;1.70;99.90;;;;;;6288851;28;20290;-76
2022/02/27 04:58:09;;;;;;;1.00;1.00;;;1.80;99.90;;;;;;6288852;28;20302;-76
2022/02/27 05:01:15;;;;;;;1.40;1.13;;;1.70;99.90;;;;;;6288996;28;20277;-76
2022/02/27 05:04:20;;;;;;;4.63;1.30;;;1.70;99.90;;;;;;6288399;28;20294;-76
2022/02/27 05:07:26;;;;;;;2.07;1.10;;;1.70;99.90;;;;;;6289242;28;20292;-76
2022/02/27 05:10:33;;;;;;;1.10;1.10;;;1.60;99.90;;;;;;6299078;28;20271;-76
2022/02/27 05:13:38;;;;;;;1.80;1.10;;;1.70;99.90;;;;;;6313384;28;20297;-76
2022/02/27 05:16:43;;;;;;;1.63;1.20;;;1.80;99.90;;;;;;6313056;28;20291;-76
2022/02/27 05:19:49;;;;;;;1.00;1.00;;;1.70;99.90;;;;;;6312624;28;20309;-76
2022/02/27 05:22:55;;;;;;;1.43;1.27;;;1.60;99.90;;;;;;6313127;28;20297;-76
2022/02/27 05:26:01;;;;;;;1.80;1.13;;;1.70;99.90;;;;;;6313119;28;20278;-76
2022/02/27 05:29:07;;;;;;;3.03;1.10;;;1.60;99.90;;;;;;6312715;28;20600;-76
2022/02/27 05:32:14;;;;;;;1.07;1.07;;;1.60;99.90;;;;;;6313085;28;20474;-76
2022/02/27 05:35:20;;;;;;;1.53;1.43;;;1.60;99.90;;;;;;6313811;28;20291;-76
2022/02/27 05:38:26;;;;;;;1.57;1.00;;;1.60;99.90;;;;;;6313034;28;20527;-76
2022/02/27 05:41:33;;;;;;;4.03;1.10;;;1.50;99.90;;;;;;6313233;28;20545;-77
2022/02/27 05:44:39;;;;;;;1.57;1.10;;;1.60;99.90;;;;;;6312652;28;20300;-76
2022/02/27 05:47:44;;;;;;;1.07;1.07;;;1.50;99.90;;;;;;6312450;28;20586;-76
2022/02/27 05:50:49;;;;;;;1.33;1.23;;;1.50;99.90;;;;;;6312732;28;20274;-76
2022/02/27 05:53:55;;;;;;;1.40;1.40;;;1.60;99.90;;;;;;6312429;28;20309;-76
2022/02/27 05:57:03;;;;;;;5.50;1.20;;;1.50;99.90;;;;;;6311415;28;20293;-76
2022/02/27 06:00:11;;;;;;;2.10;1.30;;;1.60;99.90;;;;;;6312910;28;20275;-76
2022/02/27 06:03:22;;;;;;;1.13;1.10;;;1.50;99.90;;;;;;6312222;28;20284;-76
2022/02/27 06:06:27;;;;;;;1.67;1.10;;;1.50;99.90;;;;;;6312184;28;20587;-76
2022/02/27 06:09:33;;;;;;;1.20;1.13;;;1.50;99.90;;;;;;6310526;28;20297;-76
2022/02/27 06:12:46;;;;;;;1.60;1.20;;;1.50;99.90;;;;;;6287620;28;20326;-76
2022/02/27 06:15:51;;;;;;;1.20;1.10;;;1.50;99.90;;;;;;6287408;28;20598;-77
2022/02/27 06:18:56;;;;;;;1.30;1.30;;;1.50;99.90;;;;;;6286805;28;20295;-76
2022/02/27 06:22:04;;;;;;;1.27;1.17;;;1.60;99.90;;;;;;6309242;28;20294;-76
2022/02/27 06:25:10;;;;;;;1.47;1.27;;;1.50;99.90;;;;;;6313089;28;20273;-77
2022/02/27 06:28:18;;;;;;;1.10;1.10;;;1.50;99.90;;;;;;6312285;28;20237;-76
2022/02/27 06:31:23;;;;;;;3.53;1.50;;;1.50;99.90;;;;;;6312939;28;20278;-76
2022/02/27 06:34:29;;;;;;;1.40;1.40;;;1.60;99.90;;;;;;6311816;28;20297;-76
2022/02/27 06:37:35;;;;;;;1.33;1.23;;;1.70;99.90;;;;;;6311494;28;20297;-76
2022/02/27 06:40:42;;;;;;;1.10;1.00;;;1.70;99.90;;;;;;6311688;28;20269;-77
2022/02/27 06:43:49;;;;;;;3.20;1.20;;;1.70;99.90;;;;;;6311621;28;20294;-76
2022/02/27 06:47:00;;;;;;;1.20;1.10;;;1.80;99.90;;;;;;6310439;28;20458;-77
2022/02/27 06:50:06;;;;;;;1.13;1.13;;;1.90;99.90;;;;;;6312287;28;20271;-76
2022/02/27 06:53:14;;;;;;;1.40;1.30;;;2.00;99.90;;;;;;6311640;28;20297;-76
2022/02/27 06:56:20;;;;;;;3.60;1.10;;;2.10;99.90;;;;;;6311697;28;20470;-77
2022/02/27 07:02:51;;;;;;;1.73;1.10;;;2.30;99.90;;;;;;6311069;28;20294;-75
2022/02/27 07:05:57;;;;;;;5.43;1.30;;;2.40;99.90;;;;;;6311627;28;20450;-75
2022/02/27 07:09:02;;;;;;;1.37;1.17;;;2.40;99.90;;;;;;6317265;28;20299;-76
2022/02/27 07:12:09;;;;;;;2.80;1.50;;;2.40;99.90;;;;;;6315412;28;20309;-76
2022/02/27 07:15:18;;;;;;;3.90;1.17;;;2.50;99.90;;;;;;6316386;28;20274;-76
2022/02/27 07:18:23;;;;;;;1.43;1.27;;;2.50;99.90;;;;;;6315441;28;20445;-76
2022/02/27 07:21:29;;;;;;;2.43;1.33;;;2.60;99.60;;;;;;6315757;28;20375;-76
2022/02/27 07:24:34;;;;;;;1.93;1.20;;;2.70;99.30;;;;;;6316305;28;20295;-76
2022/02/27 07:27:40;;;;;;;2.53;1.23;;;2.80;99.30;;;;;;6316197;28;20305;-76
2022/02/27 07:30:46;;;;;;;2.00;1.20;;;2.80;99.80;;;;;;6316384;28;20272;-76
2022/02/27 07:33:52;;;;;;;2.17;1.20;;;2.80;99.50;;;;;;6315274;28;20296;-76
2022/02/27 07:36:59;;;;;;;1.20;1.07;;;2.90;99.50;;;;;;6316003;28;20304;-76
2022/02/27 07:40:06;;;;;;;4.03;1.30;;;2.90;99.30;;;;;;6315168;28;20403;-75
2022/02/27 07:43:12;;;;;;;1.40;1.30;;;3.00;99.90;;;;;;6315453;28;20589;-76
2022/02/27 07:46:19;;;;;;;1.27;1.17;;;3.10;99.50;;;;;;6315293;28;20275;-76
2022/02/27 07:49:25;;;;;;;4.23;1.27;;;3.10;99.80;;;;;;6315245;28;20300;-75
2022/02/27 07:52:30;;;;;;;2.23;1.20;;;3.10;99.80;;;;;;6314715;28;20288;-75
2022/02/27 07:55:35;;;;;;;5.77;1.30;;;3.10;99.40;;;;;;6315501;28;20291;-75
2022/02/27 07:58:41;;;;;;;3.17;1.13;;;3.10;99.90;;;;;;6314785;28;20569;-75
2022/02/27 08:01:47;;;;;;;6.33;1.43;;;3.20;99.90;;;;;;6315302;28;20308;-76
2022/02/27 08:04:53;;;;;;;2.73;1.47;;;3.20;99.90;;;;;;6315780;28;20292;-76
2022/02/27 08:07:58;;;;;;;7.63;1.63;;;3.20;99.80;;;;;;6315245;28;20319;-76
2022/02/27 08:11:03;;;;;;;4.23;1.40;;;3.20;99.90;;;;;;6314802;28;20264;-76
2022/02/27 08:14:08;;;;;;;1.37;1.20;;;3.30;99.70;;;;;;6314732;28;20297;-76
2022/02/27 08:17:17;;;;;;;1.20;1.10;;;3.30;99.70;;;;;;6312999;28;20320;-76
2022/02/27 08:20:22;;;;;;;1.50;1.33;;;3.30;99.80;;;;;;6315314;28;20302;-76
2022/02/27 08:23:28;;;;;;;2.87;1.30;;;3.30;99.90;;;;;;6314163;28;20296;-76
2022/02/27 08:26:33;;;;;;;9.17;1.60;;;3.30;99.80;;;;;;6315043;28;20546;-76
2022/02/27 08:29:39;;;;;;;1.33;1.23;;;3.40;99.70;;;;;;6313761;28;20302;-76
2022/02/27 08:32:49;;;;;;;3.73;1.30;;;3.30;99.80;;;;;;6314050;28;20292;-76
2022/02/27 08:35:56;;;;;;;5.60;1.80;;;3.40;99.60;;;;;;6314172;28;20277;-75
2022/02/27 08:39:02;;;;;;;3.07;1.20;;;3.30;99.90;;;;;;6312979;28;20296;-76
2022/02/27 08:42:09;;;;;;;3.70;1.33;;;3.30;99.90;;;;;;6314051;28;20266;-76
2022/02/27 08:45:17;;;;;;;4.17;1.47;;;3.40;99.90;;;;;;6314359;28;20294;-76
2022/02/27 08:48:27;;;;;;;4.10;1.40;;;3.40;99.90;;;;;;6313674;28;20296;-76
2022/02/27 08:51:32;;;;;;;4.97;1.50;;;3.30;99.90;;;;;;6314156;28;20272;-77
2022/02/27 08:54:38;;;;;;;3.63;1.37;;;3.30;99.90;;;;;;6313415;28;20599;-76
2022/02/27 08:57:44;;;;;;;4.43;1.50;;;3.40;99.90;;;;;;6313596;28;20298;-76
2022/02/27 09:00:49;;;;;;;1.40;1.27;;;3.40;99.90;;;;;;6312819;28;20271;-77
2022/02/27 09:03:56;;;;;;;6.77;1.77;;;3.40;99.90;;;;;;6313927;28;20292;-76
2022/02/27 09:07:02;;;;;;;5.20;1.50;;;3.50;99.90;;;;;;6312720;28;20296;-76
2022/02/27 09:10:12;;;;;;;2.03;1.20;;;3.50;99.90;;;;;;6313441;28;20269;-76
2022/02/27 09:13:17;;;;;;;6.97;1.33;;;3.50;99.90;;;;;;6313339;28;20304;-76
2022/02/27 09:16:25;;;;;;;1.50;1.20;;;3.50;99.90;;;;;;6314105;28;20271;-76
2022/02/27 09:19:34;;;;;;;8.70;1.90;;;3.60;99.90;;;;;;6312593;28;20304;-77
2022/02/27 09:22:39;;;;;;;1.30;1.30;;;3.60;99.90;;;;;;6312910;28;20294;-77
2022/02/27 09:25:45;;;;;;;10.00;1.70;;;3.70;99.90;;;;;;6313101;28;20274;-76
2022/02/27 09:29:10;;;;;;;10.20;1.73;;;3.70;99.90;;;;;;6311470;28;20303;-76
2022/02/27 09:32:15;;;;;;;5.10;1.37;;;3.90;99.90;;;;;;6311973;28;20363;-77
2022/02/27 09:35:28;;;;;;;4.90;1.60;;;3.90;99.90;;;;;;6311870;28;20273;-77
2022/02/27 09:38:35;;;;;;;3.17;1.40;;;4.10;99.90;;;;;;6311741;28;20298;-77
2022/02/27 09:41:40;;;;;;;2.73;1.40;;;4.00;99.90;;;;;;6312462;28;20269;-77
2022/02/27 09:44:45;;;;;;;4.47;1.40;;;4.10;99.90;;;;;;6312382;28;20600;-76
2022/02/27 09:47:52;;;;;;;3.40;1.50;;;4.10;99.90;;;;;;6311789;28;20313;-76
2022/02/27 09:50:59;;;;;;;1.83;1.70;;;4.20;99.90;;;;;;6312468;28;20270;-76
2022/02/27 09:54:05;;;;;;;3.23;1.83;;;4.20;99.90;;;;;;6311038;28;20296;-76
2022/02/27 09:57:14;;;;;;;2.93;1.47;;;4.30;99.90;;;;;;6311703;28;20272;-76
2022/02/27 10:00:20;;;;;;;3.40;1.43;;;4.30;99.90;;;;;;6311648;28;20292;-76
2022/02/27 10:03:28;;;;;;;6.03;1.60;;;4.30;99.90;;;;;;6311199;28;20297;-76
2022/02/27 10:06:50;;;;;;;5.37;1.50;;;4.40;99.90;;;;;;6312525;28;20466;-76
2022/02/27 10:10:07;;;;;;;2.23;1.50;;;4.40;99.90;;;;;;6310542;28;20285;-76
2022/02/27 10:13:12;;;;;;;6.37;1.70;;;4.50;99.90;;;;;;6311995;28;20298;-77
2022/02/27 10:16:20;;;;;;;3.37;1.80;;;4.40;99.90;;;;;;6312047;28;20275;-77
2022/02/27 10:19:25;;;;;;;6.10;1.40;;;4.40;99.90;;;;;;6311066;28;20302;-76
2022/02/27 10:22:35;;;;;;;4.37;1.33;;;4.60;99.90;;;;;;6310905;28;20503;-77
2022/02/27 10:25:41;;;;;;;3.90;1.47;;;4.60;99.90;;;;;;6312264;28;20269;-77
2022/02/27 10:29:08;;;;;;;2.70;1.50;;;4.60;99.90;;;;;;6311046;28;20300;-77
2022/02/27 10:32:14;;;;;;;4.73;1.60;;;4.60;99.90;;;;;;6310825;28;20301;-77
2022/02/27 10:35:43;;;;;;;3.30;1.50;;;4.60;99.90;;;;;;6310807;28;20269;-77
2022/02/27 10:38:52;;;;;;;5.20;1.30;;;4.70;99.90;;;;;;6310820;28;20305;-77
2022/02/27 10:42:17;;;;;;;7.77;1.70;;;4.70;99.90;;;;;;6310023;28;20278;-77
2022/02/27 10:45:23;;;;;;;3.27;1.53;;;4.70;99.90;;;;;;6310719;28;20477;-77
2022/02/27 10:48:31;;;;;;;2.03;1.80;;;4.70;99.90;;;;;;6292844;28;20297;-76
2022/02/27 10:51:36;;;;;;;6.90;1.37;;;4.70;99.90;;;;;;6311258;28;20278;-76
2022/02/27 10:54:44;;;;;;;8.77;1.40;;;4.90;99.90;;;;;;6311221;28;20460;-77
2022/02/27 10:57:51;;;;;;;2.23;1.57;;;4.90;99.90;;;;;;6293297;28;20291;-77
2022/02/27 11:00:57;;;;;;;1.93;1.50;;;4.90;99.90;;;;;;6313574;28;20599;-77
2022/02/27 11:04:02;;;;;;;1.80;1.60;;;5.00;99.60;;;;;;6313303;28;20293;-77
2022/02/27 11:07:10;;;;;;;6.17;1.73;;;5.00;99.80;;;;;;6311975;28;20272;-79
2022/02/27 11:10:19;;;;;;;4.40;2.10;;;5.00;99.90;;;;;;6311094;28;20498;-76
2022/02/27 11:13:25;;;;;;;4.67;1.53;;;5.00;99.90;;;;;;6310236;28;20305;-76
2022/02/27 11:16:33;;;;;;;1.50;1.40;;;5.10;99.20;;;;;;6310967;28;20273;-76
2022/02/27 11:19:39;;;;;;;2.77;1.37;;;5.20;98.70;;;;;;6309556;28;20576;-76
2022/02/27 11:22:44;;;;;;;8.47;1.47;;;5.10;98.80;;;;;;6310565;28;20291;-78
2022/02/27 11:25:53;;;;;;;5.33;1.57;;;5.20;98.90;;;;;;6311250;28;20269;-78
2022/02/27 11:28:58;;;;;;;3.60;1.50;;;5.20;99.60;;;;;;6309825;28;20295;-77
2022/02/27 11:32:05;;;;;;;5.17;1.73;;;5.20;99.30;;;;;;6285975;28;20282;-76
2022/02/27 11:35:34;;;;;;;4.47;1.43;;;5.30;98.50;;;;;;6286260;28;20355;-76
2022/02/27 11:38:41;;;;;;;4.20;1.70;;;5.30;98.50;;;;;;6285199;28;20298;-77
2022/02/27 11:41:50;;;;;;;3.27;1.30;;;5.40;98.30;;;;;;6284862;28;20589;-78
2022/02/27 11:44:55;;;;;;;3.27;1.40;;;5.40;98.10;;;;;;6284968;28;20552;-79
2022/02/27 11:48:01;;;;;;;7.10;1.30;;;5.40;97.40;;;;;;6285801;28;20296;-78
2022/02/27 11:51:06;;;;;;;8.20;1.90;;;5.50;97.50;;;;;;6286461;28;20314;-76
2022/02/27 11:54:14;;;;;;;10.20;1.70;;;5.50;97.60;;;;;;6289323;28;20375;-77
2022/02/27 11:57:22;;;;;;;8.23;1.60;;;5.40;98.00;;;;;;6273417;28;20288;-77
2022/02/27 12:00:38;;;;;;;4.40;2.60;;;5.40;98.20;;;;;;6292379;28;20320;-77
2022/02/27 12:03:44;;;;;;;3.23;1.30;;;5.40;98.30;;;;;;6290135;28;20381;-76
2022/02/27 12:07:03;;;;;;;6.33;1.50;;;5.50;97.60;;;;;;6295985;28;20268;-78
2022/02/27 12:10:08;;;;;;;1.63;1.53;;;5.60;96.30;;;;;;6291307;28;20274;-76
2022/02/27 12:13:26;;;;;;;3.83;1.43;;;5.60;97.30;;;;;;6134847;28;20232;-78
2022/02/27 12:16:37;;;;;;;6.27;1.53;;;5.60;96.90;;;;;;6288747;28;20582;-77
2022/02/27 12:19:46;;;;;;;3.03;1.70;;;5.70;96.70;;;;;;6293027;28;20314;-80
2022/02/27 12:22:51;;;;;;;4.50;1.77;;;5.70;95.80;;;;;;6315652;28;20294;-77
2022/02/27 12:25:59;;;;;;;2.27;1.40;;;5.70;96.40;;;;;;6316410;28;20337;-75
2022/02/27 12:29:06;;;;;;;6.70;1.60;;;5.60;96.90;;;;;;6315087;28;20300;-78
2022/02/27 12:32:20;;;;;;;4.30;1.37;;;5.70;96.40;;;;;;6317643;28;20296;-78
2022/02/27 12:35:26;;;;;;;3.07;1.30;;;5.80;95.80;;;;;;6318397;28;20272;-77
2022/02/27 12:38:32;;;;;;;3.03;1.50;;;5.70;96.40;;;;;;6318271;28;20295;-79
2022/02/27 12:41:41;;;;;;;1.37;1.27;;;5.90;95.40;;;;;;6317637;28;20308;-78
2022/02/27 12:44:51;;;;;;;4.90;1.40;;;6.00;94.30;;;;;;6313994;28;20295;-77
2022/02/27 12:48:09;;;;;;;4.33;1.70;;;6.00;95.00;;;;;;6312863;28;20305;-77
2022/02/27 12:51:16;;;;;;;2.83;1.50;;;5.90;95.10;;;;;;6314226;28;20276;-77
2022/02/27 12:54:23;;;;;;;5.67;1.97;;;5.90;95.00;;;;;;6312226;28;20469;-77
2022/02/27 12:57:29;;;;;;;3.17;1.43;;;6.00;94.90;;;;;;6312872;28;20307;-77
2022/02/27 13:00:40;;;;;;;2.23;1.47;;;6.00;94.80;;;;;;6314441;28;20291;-77
2022/02/27 13:03:59;;;;;;;1.50;1.40;;;6.00;93.90;;;;;;6311695;28;20298;-77
2022/02/27 13:07:07;;;;;;;3.93;1.40;;;6.00;93.70;;;;;;6312412;28;20575;-77
2022/02/27 13:10:20;;;;;;;2.40;1.50;;;6.00;93.90;;;;;;6313600;28;20273;-77
2022/02/27 13:13:25;;;;;;;3.60;1.40;;;6.00;95.20;;;;;;6312070;28;20444;-78
2022/02/27 13:16:32;;;;;;;8.63;1.73;;;6.00;94.60;;;;;;6312055;28;20293;-78
2022/02/27 13:19:43;;;;;;;5.83;1.57;;;6.10;93.50;;;;;;6312805;28;20309;-77
2022/02/27 13:22:51;;;;;;;1.83;1.63;;;6.10;93.20;;;;;;6313214;28;20297;-78
2022/02/27 13:26:02;;;;;;;3.60;1.47;;;6.10;91.90;;;;;;6315049;28;20261;-79
2022/02/27 13:29:12;;;;;;;3.10;1.87;;;6.10;93.00;;;;;;6312862;28;20472;-78
2022/02/27 13:32:21;;;;;;;2.57;1.67;;;6.00;93.70;;;;;;6311826;28;20293;-78
2022/02/27 13:35:36;;;;;;;5.13;1.60;;;6.00;94.20;;;;;;6314638;28;20273;-79
2022/02/27 13:38:42;;;;;;;3.80;1.60;;;6.10;92.80;;;;;;6312545;28;20300;-79
2022/02/27 13:41:48;;;;;;;3.63;1.47;;;6.10;92.70;;;;;;6297737;28;20295;-78
2022/02/27 13:44:54;;;;;;;3.67;1.57;;;6.10;94.00;;;;;;6314099;28;20620;-78
2022/02/27 13:48:02;;;;;;;1.63;1.40;;;6.20;93.30;;;;;;6312541;28;20297;-81
2022/02/27 13:51:10;;;;;;;5.30;1.53;;;6.10;93.90;;;;;;6313661;28;20327;-76
2022/02/27 13:54:19;;;;;;;2.20;1.73;;;6.10;94.20;;;;;;6311377;28;20296;-78
2022/02/27 13:57:36;;;;;;;4.90;1.47;;;6.10;94.60;;;;;;6313567;28;20608;-80
2022/02/27 14:00:52;;;;;;;5.20;1.57;;;6.10;95.00;;;;;;6297744;28;20271;-76
2022/02/27 14:04:05;;;;;;;5.10;1.40;;;6.00;95.70;;;;;;6310842;28;20303;-77
2022/02/27 14:07:16;;;;;;;2.20;1.57;;;6.00;96.30;;;;;;6311312;28;20288;-78
2022/02/27 14:10:26;;;;;;;3.47;1.53;;;6.00;96.30;;;;;;6312146;28;20264;-76
2022/02/27 14:13:31;;;;;;;3.57;1.50;;;6.00;96.20;;;;;;6310732;28;20296;-76
2022/02/27 14:16:41;;;;;;;3.37;1.60;;;5.90;96.60;;;;;;6310507;28;20272;-76
2022/02/27 14:19:48;;;;;;;4.20;1.50;;;6.00;96.10;;;;;;6310829;28;20308;-76
2022/02/27 14:23:13;;;;;;;5.50;1.57;;;6.00;95.90;;;;;;6310218;28;20293;-77
2022/02/27 14:26:18;;;;;;;5.07;1.67;;;6.00;95.50;;;;;;6312039;28;20272;-77
2022/02/27 14:29:34;;;;;;;3.10;1.80;;;5.90;95.90;;;;;;6310557;28;20299;-77
2022/02/27 14:32:49;;;;;;;3.40;1.50;;;5.90;96.20;;;;;;6311757;28;20300;-79
2022/02/27 14:35:56;;;;;;;5.33;1.50;;;5.90;95.90;;;;;;6313087;28;20266;-79
2022/02/27 14:39:02;;;;;;;5.73;1.50;;;5.90;96.00;;;;;;6312268;28;20296;-79
2022/02/27 14:42:10;;;;;;;5.77;1.47;;;5.80;96.90;;;;;;6312448;28;20341;-79
2022/02/27 14:45:16;;;;;;;12.10;1.80;;;5.80;97.10;;;;;;6312471;28;20275;-77
2022/02/27 14:48:23;;;;;;;4.43;1.87;;;5.70;97.40;;;;;;6312029;28;20559;-78
2022/02/27 14:51:30;;;;;;;2.37;1.70;;;5.80;97.40;;;;;;6311752;28;20338;-77
2022/02/27 14:54:35;;;;;;;8.47;2.23;;;5.80;97.30;;;;;;6311573;28;20301;-77
2022/02/27 14:57:41;;;;;;;4.33;1.63;;;5.70;97.90;;;;;;6310589;28;20349;-76
2022/02/27 15:00:46;;;;;;;3.97;1.30;;;5.60;98.60;;;;;;6312405;28;20543;-77
2022/02/27 15:03:52;;;;;;;2.80;1.33;;;5.50;98.80;;;;;;6310109;28;20679;-76
2022/02/27 15:06:58;;;;;;;6.80;1.60;;;5.70;98.40;;;;;;6292427;28;20288;-77
2022/02/27 15:10:05;;;;;;;6.40;1.77;;;5.50;99.00;;;;;;6310902;28;20263;-77
2022/02/27 15:13:15;;;;;;;4.77;1.40;;;5.40;99.70;;;;;;6310202;28;20299;-76
2022/02/27 15:16:20;;;;;;;2.60;1.43;;;5.50;99.20;;;;;;6310922;28;20268;-76
2022/02/27 15:19:26;;;;;;;3.10;1.60;;;5.40;99.50;;;;;;6310159;28;20295;-76
2022/02/27 15:22:33;;;;;;;2.43;1.50;;;5.40;99.90;;;;;;6309756;28;20291;-76
2022/02/27 15:25:39;;;;;;;2.90;1.40;;;5.30;99.90;;;;;;6311364;28;20336;-76
2022/02/27 15:28:44;;;;;;;5.80;1.87;;;5.30;99.90;;;;;;6295417;28;20296;-76
2022/02/27 15:31:51;;;;;;;4.07;1.77;;;5.30;99.90;;;;;;6315064;28;20293;-77
2022/02/27 15:34:56;;;;;;;5.57;1.63;;;5.30;99.90;;;;;;6315742;28;20276;-76
2022/02/27 15:38:03;;;;;;;10.43;1.80;;;5.20;99.90;;;;;;6316252;28;20295;-76
2022/02/27 15:41:09;;;;;;;5.00;1.87;;;5.20;99.90;;;;;;6316680;28;20587;-76
2022/02/27 15:44:15;;;;;;;3.07;1.23;;;5.20;99.90;;;;;;6315052;28;20584;-77
2022/02/27 15:47:20;;;;;;;4.47;1.73;;;5.10;99.90;;;;;;6314502;28;20292;-77
2022/02/27 15:50:26;;;;;;;3.10;1.70;;;5.10;99.90;;;;;;6316240;28;20267;-77
2022/02/27 15:53:33;;;;;;;3.47;1.87;;;5.00;99.90;;;;;;6313424;28;20294;-77
2022/02/27 15:56:38;;;;;;;5.30;1.60;;;5.00;99.90;;;;;;6315196;28;20277;-78
2022/02/27 15:59:43;;;;;;;7.20;1.83;;;4.90;99.90;;;;;;6331956;28;20297;-83
2022/02/27 16:02:49;;;;;;;3.77;1.90;;;4.80;99.90;;;;;;6329708;28;20301;-77
2022/02/27 16:05:54;;;;;;;7.53;2.00;;;4.80;99.90;;;;;;6314680;28;20298;-78
2022/02/27 16:09:01;;;;;;;4.57;1.90;;;4.90;99.90;;;;;;6313671;28;20299;-76
2022/02/27 16:12:09;;;;;;;4.10;1.90;;;4.90;99.90;;;;;;6313429;28;20298;-75
2022/02/27 16:15:15;;;;;;;3.70;1.67;;;4.90;99.90;;;;;;6314788;28;20274;-76
2022/02/27 16:18:20;;;;;;;4.97;1.90;;;4.80;99.90;;;;;;6314514;28;20295;-76
2022/02/27 16:21:26;;;;;;;4.57;1.90;;;4.80;99.90;;;;;;6316208;28;20299;-77
2022/02/27 16:24:32;;;;;;;6.80;1.90;;;4.70;99.90;;;;;;6313719;28;20302;-77
2022/02/27 16:27:38;;;;;;;4.53;1.77;;;4.50;99.90;;;;;;6313014;28;20294;-76
2022/02/27 16:30:43;;;;;;;3.97;1.73;;;4.60;99.90;;;;;;6314245;28;20438;-75